sensor_id;sensor_type;location;lat;lon;timestamp;pressure;altitude;pressure_sealevel;temperature
75431;BMP280;64127;51.488;5.462;2023-03-16T00:02:19;101561.47;;;9.20
75431;BMP280;64127;51.488;5.462;2023-03-16T00:04:51;101555.16;;;9.16
75431;BMP280;64127;51.488;5.462;2023-03-16T00:07:23;101563.81;;;9.15
75431;BMP280;64127;51.488;5.462;2023-03-16T00:09:55;101526.84;;;8.94
75431;BMP280;64127;51.488;5.462;2023-03-16T00:12:27;101543.44;;;9.09
75431;BMP280;64127;51.488;5.462;2023-03-16T00:15:00;101546.69;;;9.20
75431;BMP280;64127;51.488;5.462;2023-03-16T00:17:32;101553.34;;;9.30
75431;BMP280;64127;51.488;5.462;2023-03-16T00:20:06;101557.31;;;9.23
75431;BMP280;64127;51.488;5.462;2023-03-16T00:22:38;101548.56;;;9.23
75431;BMP280;64127;51.488;5.462;2023-03-16T00:25:12;101548.00;;;9.28
75431;BMP280;64127;51.488;5.462;2023-03-16T00:27:45;101545.50;;;9.30
75431;BMP280;64127;51.488;5.462;2023-03-16T00:30:17;101530.25;;;9.23
75431;BMP280;64127;51.488;5.462;2023-03-16T00:32:49;101541.81;;;9.26
75431;BMP280;64127;51.488;5.462;2023-03-16T00:35:24;101548.84;;;9.27
75431;BMP280;64127;51.488;5.462;2023-03-16T00:37:56;101543.63;;;9.27
75431;BMP280;64127;51.488;5.462;2023-03-16T00:40:28;101541.81;;;9.26
75431;BMP280;64127;51.488;5.462;2023-03-16T00:43:01;101536.56;;;9.26
75431;BMP280;64127;51.488;5.462;2023-03-16T00:45:33;101526.13;;;9.26
75431;BMP280;64127;51.488;5.462;2023-03-16T00:48:05;101531.34;;;9.26
75431;BMP280;64127;51.488;5.462;2023-03-16T00:50:38;101522.69;;;9.27
75431;BMP280;64127;51.488;5.462;2023-03-16T00:53:10;101527.09;;;9.28
75431;BMP280;64127;51.488;5.462;2023-03-16T00:55:42;101526.22;;;9.28
75431;BMP280;64127;51.488;5.462;2023-03-16T00:58:14;101520.88;;;9.26
75431;BMP280;64127;51.488;5.462;2023-03-16T01:00:46;101514.84;;;9.27
75431;BMP280;64127;51.488;5.462;2023-03-16T01:03:20;101503.03;;;9.19
75431;BMP280;64127;51.488;5.462;2023-03-16T01:05:52;101495.81;;;9.15
75431;BMP280;64127;51.488;5.462;2023-03-16T01:08:26;101498.72;;;9.20
75431;BMP280;64127;51.488;5.462;2023-03-16T01:11:07;101491.44;;;9.14
75431;BMP280;64127;51.488;5.462;2023-03-16T01:13:41;101489.78;;;9.16
75431;BMP280;64127;51.488;5.462;2023-03-16T01:16:17;101486.53;;;9.20
75431;BMP280;64127;51.488;5.462;2023-03-16T01:18:50;101479.22;;;9.14
75431;BMP280;64127;51.488;5.462;2023-03-16T01:21:23;101479.59;;;9.21
75431;BMP280;64127;51.488;5.462;2023-03-16T01:23:55;101463.47;;;9.13
75431;BMP280;64127;51.488;5.462;2023-03-16T01:26:27;101469.03;;;9.19
75431;BMP280;64127;51.488;5.462;2023-03-16T01:28:59;101428.59;;;8.98
75431;BMP280;64127;51.488;5.462;2023-03-16T01:31:33;101451.78;;;9.06
75431;BMP280;64127;51.488;5.462;2023-03-16T01:34:05;101464.28;;;9.12
75431;BMP280;64127;51.488;5.462;2023-03-16T01:36:37;101454.63;;;9.11
75431;BMP280;64127;51.488;5.462;2023-03-16T01:39:10;101455.63;;;9.13
75431;BMP280;64127;51.488;5.462;2023-03-16T01:41:45;101464.91;;;9.08
75431;BMP280;64127;51.488;5.462;2023-03-16T01:44:26;101449.97;;;9.05
75431;BMP280;64127;51.488;5.462;2023-03-16T01:47:06;101449.06;;;9.05
75431;BMP280;64127;51.488;5.462;2023-03-16T01:49:38;101453.50;;;9.06
75431;BMP280;64127;51.488;5.462;2023-03-16T01:52:22;101450.69;;;9.03
75431;BMP280;64127;51.488;5.462;2023-03-16T01:55:06;101432.06;;;8.97
75431;BMP280;64127;51.488;5.462;2023-03-16T01:57:46;101400.44;;;8.78
75431;BMP280;64127;51.488;5.462;2023-03-16T02:00:19;101448.09;;;9.03
75431;BMP280;64127;51.488;5.462;2023-03-16T02:03:00;101441.84;;;9.01
75431;BMP280;64127;51.488;5.462;2023-03-16T02:08:39;101436.56;;;8.99
75431;BMP280;64127;51.488;5.462;2023-03-16T02:11:12;101439.81;;;8.95
75431;BMP280;64127;51.488;5.462;2023-03-16T02:13:49;101433.84;;;8.98
75431;BMP280;64127;51.488;5.462;2023-03-16T02:16:21;101442.75;;;9.01
75431;BMP280;64127;51.488;5.462;2023-03-16T02:18:53;101432.22;;;9.00
75431;BMP280;64127;51.488;5.462;2023-03-16T02:21:56;101435.47;;;8.96
75431;BMP280;64127;51.488;5.462;2023-03-16T02:24:30;101435.53;;;8.97
75431;BMP280;64127;51.488;5.462;2023-03-16T02:27:11;101416.38;;;8.97
75431;BMP280;64127;51.488;5.462;2023-03-16T02:30:01;101412.31;;;8.87
75431;BMP280;64127;51.488;5.462;2023-03-16T02:32:36;101407.19;;;8.89
75431;BMP280;64127;51.488;5.462;2023-03-16T02:35:09;101428.38;;;8.93
75431;BMP280;64127;51.488;5.462;2023-03-16T02:37:41;101428.28;;;8.92
75431;BMP280;64127;51.488;5.462;2023-03-16T02:40:28;101423.69;;;8.88
75431;BMP280;64127;51.488;5.462;2023-03-16T02:43:21;101425.94;;;8.82
75431;BMP280;64127;51.488;5.462;2023-03-16T02:45:59;101423.44;;;8.83
75431;BMP280;64127;51.488;5.462;2023-03-16T02:51:36;101422.53;;;8.83
75431;BMP280;64127;51.488;5.462;2023-03-16T02:54:08;101417.47;;;8.86
75431;BMP280;64127;51.488;5.462;2023-03-16T02:56:40;101419.09;;;8.84
75431;BMP280;64127;51.488;5.462;2023-03-16T02:59:12;101403.41;;;8.84
75431;BMP280;64127;51.488;5.462;2023-03-16T03:01:44;101393.69;;;8.81
75431;BMP280;64127;51.488;5.462;2023-03-16T03:04:17;101405.66;;;8.92
75431;BMP280;64127;51.488;5.462;2023-03-16T03:06:50;101405.56;;;8.91
75431;BMP280;64127;51.488;5.462;2023-03-16T03:09:22;101405.50;;;8.89
75431;BMP280;64127;51.488;5.462;2023-03-16T03:11:54;101402.94;;;8.91
75431;BMP280;64127;51.488;5.462;2023-03-16T03:14:26;101399.97;;;8.85
75431;BMP280;64127;51.488;5.462;2023-03-16T03:16:59;101412.25;;;8.86
75431;BMP280;64127;51.488;5.462;2023-03-16T03:19:31;101400.72;;;8.82
75431;BMP280;64127;51.488;5.462;2023-03-16T03:22:05;101398.00;;;8.81
75431;BMP280;64127;51.488;5.462;2023-03-16T03:24:39;101391.06;;;8.81
75431;BMP280;64127;51.488;5.462;2023-03-16T03:27:11;101392.59;;;8.78
75431;BMP280;64127;51.488;5.462;2023-03-16T03:29:43;101396.22;;;8.80
75431;BMP280;64127;51.488;5.462;2023-03-16T03:32:15;101399.66;;;8.79
75431;BMP280;64127;51.488;5.462;2023-03-16T03:34:47;101395.31;;;8.79
75431;BMP280;64127;51.488;5.462;2023-03-16T03:37:19;101391.88;;;8.80
75431;BMP280;64127;51.488;5.462;2023-03-16T03:39:51;101374.44;;;8.64
75431;BMP280;64127;51.488;5.462;2023-03-16T03:42:24;101388.13;;;8.75
75431;BMP280;64127;51.488;5.462;2023-03-16T03:44:56;101391.81;;;8.79
75431;BMP280;64127;51.488;5.462;2023-03-16T03:47:28;101390.00;;;8.78
75431;BMP280;64127;51.488;5.462;2023-03-16T03:50:00;101382.25;;;8.79
75431;BMP280;64127;51.488;5.462;2023-03-16T03:52:32;101389.94;;;8.76
75431;BMP280;64127;51.488;5.462;2023-03-16T03:55:05;101392.28;;;8.72
75431;BMP280;64127;51.488;5.462;2023-03-16T03:57:38;101388.13;;;8.75
75431;BMP280;64127;51.488;5.462;2023-03-16T04:00:11;101383.97;;;8.79
75431;BMP280;64127;51.488;5.462;2023-03-16T04:02:44;101380.56;;;8.80
75431;BMP280;64127;51.488;5.462;2023-03-16T04:05:16;101359.09;;;8.71
75431;BMP280;64127;51.488;5.462;2023-03-16T04:07:48;101383.97;;;8.79
75431;BMP280;64127;51.488;5.462;2023-03-16T04:10:28;101359.28;;;8.74
75431;BMP280;64127;51.488;5.462;2023-03-16T04:13:01;101369.25;;;8.81
75431;BMP280;64127;51.488;5.462;2023-03-16T04:15:33;101360.53;;;8.80
75431;BMP280;64127;51.488;5.462;2023-03-16T04:18:09;101363.13;;;8.80
75431;BMP280;64127;51.488;5.462;2023-03-16T04:20:41;101344.28;;;8.70
75431;BMP280;64127;51.488;5.462;2023-03-16T04:23:13;101370.28;;;8.83
75431;BMP280;64127;51.488;5.462;2023-03-16T04:25:47;101365.03;;;8.83
75431;BMP280;64127;51.488;5.462;2023-03-16T04:28:19;101358.19;;;8.85
75431;BMP280;64127;51.488;5.462;2023-03-16T04:30:54;101367.88;;;8.87
75431;BMP280;64127;51.488;5.462;2023-03-16T04:33:27;101354.75;;;8.86
75431;BMP280;64127;51.488;5.462;2023-03-16T04:36:00;101355.81;;;8.89
75431;BMP280;64127;51.488;5.462;2023-03-16T04:38:33;101347.09;;;8.89
75431;BMP280;64127;51.488;5.462;2023-03-16T04:41:06;101339.63;;;8.80
75431;BMP280;64127;51.488;5.462;2023-03-16T04:43:38;101355.50;;;8.83
75431;BMP280;64127;51.488;5.462;2023-03-16T04:46:10;101352.22;;;8.87
75431;BMP280;64127;51.488;5.462;2023-03-16T04:48:42;101331.72;;;8.79
75431;BMP280;64127;51.488;5.462;2023-03-16T04:51:14;101330.38;;;8.71
75431;BMP280;64127;51.488;5.462;2023-03-16T04:53:47;101344.31;;;8.86
75431;BMP280;64127;51.488;5.462;2023-03-16T04:56:19;101334.31;;;8.79
75431;BMP280;64127;51.488;5.462;2023-03-16T04:58:51;101347.72;;;8.85
75431;BMP280;64127;51.488;5.462;2023-03-16T05:01:24;101344.31;;;8.86
75431;BMP280;64127;51.488;5.462;2023-03-16T05:03:56;101341.84;;;8.89
75431;BMP280;64127;51.488;5.462;2023-03-16T05:06:30;101319.63;;;8.81
75431;BMP280;64127;51.488;5.462;2023-03-16T05:09:02;101336.47;;;8.86
75431;BMP280;64127;51.488;5.462;2023-03-16T05:11:37;101324.84;;;8.81
75431;BMP280;64127;51.488;5.462;2023-03-16T05:14:08;101298.06;;;8.69
75431;BMP280;64127;51.488;5.462;2023-03-16T05:16:40;101334.03;;;8.89
75431;BMP280;64127;51.488;5.462;2023-03-16T05:19:12;101332.03;;;8.85
75431;BMP280;64127;51.488;5.462;2023-03-16T05:21:44;101337.38;;;8.86
75431;BMP280;64127;51.488;5.462;2023-03-16T05:24:16;101329.53;;;8.86
75431;BMP280;64127;51.488;5.462;2023-03-16T05:26:49;101318.97;;;8.85
75431;BMP280;64127;51.488;5.462;2023-03-16T05:29:21;101324.47;;;8.89
75431;BMP280;64127;51.488;5.462;2023-03-16T05:31:53;101321.59;;;8.85
75431;BMP280;64127;51.488;5.462;2023-03-16T05:34:26;101311.72;;;8.79
75431;BMP280;64127;51.488;5.462;2023-03-16T05:36:58;101321.75;;;8.88
75431;BMP280;64127;51.488;5.462;2023-03-16T05:39:30;101319.97;;;8.87
75431;BMP280;64127;51.488;5.462;2023-03-16T05:42:02;101314.56;;;8.84
75431;BMP280;64127;51.488;5.462;2023-03-16T05:44:36;101298.38;;;8.75
75431;BMP280;64127;51.488;5.462;2023-03-16T05:47:08;101307.72;;;8.86
75431;BMP280;64127;51.488;5.462;2023-03-16T05:49:40;101293.41;;;8.79
75431;BMP280;64127;51.488;5.462;2023-03-16T05:52:12;101301.50;;;8.84
75431;BMP280;64127;51.488;5.462;2023-03-16T05:54:44;101297.09;;;8.83
75431;BMP280;64127;51.488;5.462;2023-03-16T05:57:16;101297.25;;;8.86
75431;BMP280;64127;51.488;5.462;2023-03-16T05:59:48;101301.59;;;8.85
75431;BMP280;64127;51.488;5.462;2023-03-16T06:02:21;101297.09;;;8.83
75431;BMP280;64127;51.488;5.462;2023-03-16T06:04:53;101263.75;;;8.62
75431;BMP280;64127;51.488;5.462;2023-03-16T06:07:25;101310.81;;;8.79
75431;BMP280;64127;51.488;5.462;2023-03-16T06:10:00;101310.88;;;8.80
75431;BMP280;64127;51.488;5.462;2023-03-16T06:12:32;101309.00;;;8.78
75431;BMP280;64127;51.488;5.462;2023-03-16T06:15:07;101303.88;;;8.79
75431;BMP280;64127;51.488;5.462;2023-03-16T06:17:40;101309.00;;;8.78
75431;BMP280;64127;51.488;5.462;2023-03-16T06:20:12;101305.41;;;8.76
75431;BMP280;64127;51.488;5.462;2023-03-16T06:22:45;101310.81;;;8.79
75431;BMP280;64127;51.488;5.462;2023-03-16T06:25:17;101300.53;;;8.82
75431;BMP280;64127;51.488;5.462;2023-03-16T06:27:49;101314.56;;;8.84
75431;BMP280;64127;51.488;5.462;2023-03-16T06:30:21;101292.34;;;8.76
75431;BMP280;64127;51.488;5.462;2023-03-16T06:32:53;101304.94;;;8.83
75431;BMP280;64127;51.488;5.462;2023-03-16T06:35:26;101305.00;;;8.84
75431;BMP280;64127;51.488;5.462;2023-03-16T06:37:58;101287.03;;;8.74
75431;BMP280;64127;51.488;5.462;2023-03-16T06:40:30;101301.59;;;8.85
75431;BMP280;64127;51.488;5.462;2023-03-16T06:43:03;101298.06;;;8.85
75431;BMP280;64127;51.488;5.462;2023-03-16T06:45:35;101294.56;;;8.84
75431;BMP280;64127;51.488;5.462;2023-03-16T06:48:07;101296.25;;;8.84
75431;BMP280;64127;51.488;5.462;2023-03-16T06:50:40;101289.31;;;8.84
75431;BMP280;64127;51.488;5.462;2023-03-16T06:53:12;101296.47;;;8.87
75431;BMP280;64127;51.488;5.462;2023-03-16T06:55:44;101292.19;;;8.89
75431;BMP280;64127;51.488;5.462;2023-03-16T06:58:16;101295.88;;;8.92
75431;BMP280;64127;51.488;5.462;2023-03-16T07:00:48;101293.09;;;8.89
75431;BMP280;64127;51.488;5.462;2023-03-16T07:03:21;101295.94;;;8.94
75431;BMP280;64127;51.488;5.462;2023-03-16T07:05:53;101298.81;;;8.98
75431;BMP280;64127;51.488;5.462;2023-03-16T07:08:25;101294.66;;;9.02
75431;BMP280;64127;51.488;5.462;2023-03-16T07:10:57;101297.44;;;9.05
75431;BMP280;64127;51.488;5.462;2023-03-16T07:13:29;101257.06;;;8.84
75431;BMP280;64127;51.488;5.462;2023-03-16T07:16:02;101283.66;;;9.07
75431;BMP280;64127;51.488;5.462;2023-03-16T07:18:35;101265.75;;;8.99
75431;BMP280;64127;51.488;5.462;2023-03-16T07:21:10;101285.44;;;9.08
75431;BMP280;64127;51.488;5.462;2023-03-16T07:23:42;101279.47;;;9.11
75431;BMP280;64127;51.488;5.462;2023-03-16T07:26:15;101275.16;;;9.11
75431;BMP280;64127;51.488;5.462;2023-03-16T07:28:47;101284.88;;;9.14
75431;BMP280;64127;51.488;5.462;2023-03-16T07:31:19;101276.22;;;9.15
75431;BMP280;64127;51.488;5.462;2023-03-16T07:33:51;101228.19;;;8.97
75431;BMP280;64127;51.488;5.462;2023-03-16T07:36:23;101274.91;;;9.23
75431;BMP280;64127;51.488;5.462;2023-03-16T07:38:55;101274.75;;;9.20
75431;BMP280;64127;51.488;5.462;2023-03-16T07:41:27;101288.31;;;9.29
75431;BMP280;64127;51.488;5.462;2023-03-16T07:44:02;101280.47;;;9.29
75431;BMP280;64127;51.488;5.462;2023-03-16T07:46:35;101275.97;;;9.27
75431;BMP280;64127;51.488;5.462;2023-03-16T07:49:08;101256.34;;;9.18
75431;BMP280;64127;51.488;5.462;2023-03-16T07:51:41;101259.06;;;9.20
75431;BMP280;64127;51.488;5.462;2023-03-16T07:54:13;101261.34;;;9.30
75431;BMP280;64127;51.488;5.462;2023-03-16T07:56:45;101278.09;;;9.34
75431;BMP280;64127;51.488;5.462;2023-03-16T07:59:20;101277.19;;;9.33
75431;BMP280;64127;51.488;5.462;2023-03-16T08:01:52;101270.16;;;9.32
75431;BMP280;64127;51.488;5.462;2023-03-16T08:04:24;101279.16;;;9.37
75431;BMP280;64127;51.488;5.462;2023-03-16T08:06:56;101274.00;;;9.39
75431;BMP280;64127;51.488;5.462;2023-03-16T08:09:31;101277.66;;;9.42
75431;BMP280;64127;51.488;5.462;2023-03-16T08:12:08;101276.75;;;9.42
75431;BMP280;64127;51.488;5.462;2023-03-16T08:14:40;101257.19;;;9.34
75431;BMP280;64127;51.488;5.462;2023-03-16T08:17:12;101272.84;;;9.50
75431;BMP280;64127;51.488;5.462;2023-03-16T08:19:44;101279.06;;;9.52
75431;BMP280;64127;51.488;5.462;2023-03-16T08:22:17;101281.91;;;9.56
75431;BMP280;64127;51.488;5.462;2023-03-16T08:24:49;101271.59;;;9.59
75431;BMP280;64127;51.488;5.462;2023-03-16T08:27:22;101287.03;;;9.71
75431;BMP280;64127;51.488;5.462;2023-03-16T08:29:56;101282.88;;;9.75
75431;BMP280;64127;51.488;5.462;2023-03-16T08:32:29;101277.78;;;9.78
75431;BMP280;64127;51.488;5.462;2023-03-16T08:35:01;101277.94;;;9.81
75431;BMP280;64127;51.488;5.462;2023-03-16T08:37:34;101278.34;;;9.88
75431;BMP280;64127;51.488;5.462;2023-03-16T08:40:07;101273.25;;;9.91
75431;BMP280;64127;51.488;5.462;2023-03-16T08:42:46;101282.97;;;9.94
75431;BMP280;64127;51.488;5.462;2023-03-16T08:45:20;101274.16;;;9.92
75431;BMP280;64127;51.488;5.462;2023-03-16T08:47:54;101231.44;;;9.75
75431;BMP280;64127;51.488;5.462;2023-03-16T08:50:26;101256.78;;;9.94
75431;BMP280;64127;51.488;5.462;2023-03-16T08:52:59;101266.75;;;10.01
75431;BMP280;64127;51.488;5.462;2023-03-16T08:55:31;101267.03;;;10.07
75431;BMP280;64127;51.488;5.462;2023-03-16T08:58:03;101258.38;;;10.08
75431;BMP280;64127;51.488;5.462;2023-03-16T09:00:35;101264.63;;;10.10
75431;BMP280;64127;51.488;5.462;2023-03-16T09:03:08;101258.72;;;10.14
75431;BMP280;64127;51.488;5.462;2023-03-16T09:05:41;101253.84;;;10.22
75431;BMP280;64127;51.488;5.462;2023-03-16T09:08:13;101245.41;;;10.27
75431;BMP280;64127;51.488;5.462;2023-03-16T09:10:45;101250.13;;;10.34
75431;BMP280;64127;51.488;5.462;2023-03-16T09:13:18;101240.91;;;10.42
75431;BMP280;64127;51.488;5.462;2023-03-16T09:15:50;101235.00;;;10.46
75431;BMP280;64127;51.488;5.462;2023-03-16T09:18:23;101249.19;;;10.51
75431;BMP280;64127;51.488;5.462;2023-03-16T09:20:59;101245.97;;;10.57
75431;BMP280;64127;51.488;5.462;2023-03-16T09:23:33;101240.13;;;10.62
75431;BMP280;64127;51.488;5.462;2023-03-16T09:26:09;101237.72;;;10.67
75431;BMP280;64127;51.488;5.462;2023-03-16T09:28:43;101241.63;;;10.75
75431;BMP280;64127;51.488;5.462;2023-03-16T09:31:18;101246.50;;;10.87
75431;BMP280;64127;51.488;5.462;2023-03-16T09:33:50;101232.84;;;10.94
75431;BMP280;64127;51.488;5.462;2023-03-16T09:36:23;101236.59;;;10.99
75431;BMP280;64127;51.488;5.462;2023-03-16T09:38:54;101241.22;;;11.04
75431;BMP280;64127;51.488;5.462;2023-03-16T09:41:49;101226.25;;;11.02
75431;BMP280;64127;51.488;5.462;2023-03-16T09:44:53;101233.56;;;11.09
75431;BMP280;64127;51.488;5.462;2023-03-16T09:47:30;101238.88;;;11.10
75431;BMP280;64127;51.488;5.462;2023-03-16T09:50:10;101234.19;;;11.23
75431;BMP280;64127;51.488;5.462;2023-03-16T09:53:00;101229.41;;;11.33
75431;BMP280;64127;51.488;5.462;2023-03-16T09:55:37;101231.16;;;11.73
75431;BMP280;64127;51.488;5.462;2023-03-16T09:58:18;101188.94;;;11.89
75431;BMP280;64127;51.488;5.462;2023-03-16T10:07:08;101201.50;;;12.83
75431;BMP280;64127;51.488;5.462;2023-03-16T10:10:04;101190.50;;;12.95
75431;BMP280;64127;51.488;5.462;2023-03-16T10:12:43;101199.59;;;13.03
75431;BMP280;64127;51.488;5.462;2023-03-16T10:15:22;101178.44;;;13.00
75431;BMP280;64127;51.488;5.462;2023-03-16T10:18:23;101187.75;;;13.14
75431;BMP280;64127;51.488;5.462;2023-03-16T10:20:59;101170.38;;;13.19
75431;BMP280;64127;51.488;5.462;2023-03-16T10:23:34;101179.78;;;13.36
75431;BMP280;64127;51.488;5.462;2023-03-16T10:26:27;101157.25;;;13.44
75431;BMP280;64127;51.488;5.462;2023-03-16T10:29:09;101140.81;;;13.51
75431;BMP280;64127;51.488;5.462;2023-03-16T10:31:43;101169.38;;;13.91
75431;BMP280;64127;51.488;5.462;2023-03-16T10:34:15;101180.63;;;13.86
75431;BMP280;64127;51.488;5.462;2023-03-16T10:36:48;101182.00;;;13.75
75431;BMP280;64127;51.488;5.462;2023-03-16T10:39:20;101165.91;;;13.67
75431;BMP280;64127;51.488;5.462;2023-03-16T10:41:58;101174.59;;;13.63
75431;BMP280;64127;51.488;5.462;2023-03-16T10:44:30;101168.31;;;13.59
75431;BMP280;64127;51.488;5.462;2023-03-16T10:47:06;101155.38;;;13.67
75431;BMP280;64127;51.488;5.462;2023-03-16T10:49:41;101169.34;;;13.90
75431;BMP280;64127;51.488;5.462;2023-03-16T10:52:27;101146.25;;;13.83
75431;BMP280;64127;51.488;5.462;2023-03-16T10:55:31;101150.44;;;14.03
75431;BMP280;64127;51.488;5.462;2023-03-16T10:58:23;101153.41;;;14.13
75431;BMP280;64127;51.488;5.462;2023-03-16T11:00:56;101153.88;;;14.29
75431;BMP280;64127;51.488;5.462;2023-03-16T11:03:38;101144.44;;;14.35
75431;BMP280;64127;51.488;5.462;2023-03-16T11:06:30;101103.56;;;14.21
75431;BMP280;64127;51.488;5.462;2023-03-16T11:09:32;101136.50;;;14.34
75431;BMP280;64127;51.488;5.462;2023-03-16T11:12:33;101144.66;;;14.41
75431;BMP280;64127;51.488;5.462;2023-03-16T11:15:12;101141.22;;;14.44
75431;BMP280;64127;51.488;5.462;2023-03-16T11:17:56;101130.91;;;14.51
75431;BMP280;64127;51.488;5.462;2023-03-16T11:20:32;101129.56;;;14.65
75431;BMP280;64127;51.488;5.462;2023-03-16T11:23:14;101094.38;;;14.66
75431;BMP280;64127;51.488;5.462;2023-03-16T11:25:51;101109.03;;;14.87
75431;BMP280;64127;51.488;5.462;2023-03-16T11:28:38;101107.94;;;14.79
75431;BMP280;64127;51.488;5.462;2023-03-16T11:34:21;101109.81;;;14.83
75431;BMP280;64127;51.488;5.462;2023-03-16T11:37:09;101099.44;;;14.89
75431;BMP280;64127;51.488;5.462;2023-03-16T11:40:14;101095.16;;;14.94
75431;BMP280;64127;51.488;5.462;2023-03-16T11:45:33;101079.22;;;14.91
75431;BMP280;64127;51.488;5.462;2023-03-16T11:49:18;101084.50;;;14.91
75431;BMP280;64127;51.488;5.462;2023-03-16T11:54:54;101054.41;;;14.83
75431;BMP280;64127;51.488;5.462;2023-03-16T12:00:40;101063.25;;;14.85
75431;BMP280;64127;51.488;5.462;2023-03-16T12:12:28;101046.66;;;14.90
75431;BMP280;64127;51.488;5.462;2023-03-16T12:15:25;101041.19;;;14.83
75431;BMP280;64127;51.488;5.462;2023-03-16T12:18:17;101055.63;;;14.95
75431;BMP280;64127;51.488;5.462;2023-03-16T12:20:59;101052.44;;;15.08
75431;BMP280;64127;51.488;5.462;2023-03-16T12:26:24;101028.81;;;15.85
75431;BMP280;64127;51.488;5.462;2023-03-16T12:29:13;101047.91;;;15.71
75431;BMP280;64127;51.488;5.462;2023-03-16T12:32:12;101039.03;;;15.69
75431;BMP280;64127;51.488;5.462;2023-03-16T12:35:51;101037.47;;;15.78
75431;BMP280;64127;51.488;5.462;2023-03-16T12:44:16;100997.41;;;16.00
75431;BMP280;64127;51.488;5.462;2023-03-16T12:49:25;100990.66;;;16.14
75431;BMP280;64127;51.488;5.462;2023-03-16T12:52:11;100971.28;;;16.15
75431;BMP280;64127;51.488;5.462;2023-03-16T12:55:04;100967.97;;;16.25
75431;BMP280;64127;51.488;5.462;2023-03-16T12:57:39;100957.56;;;16.34
75431;BMP280;64127;51.488;5.462;2023-03-16T13:00:14;100960.53;;;16.51
75431;BMP280;64127;51.488;5.462;2023-03-16T13:02:54;100970.41;;;16.56
75431;BMP280;64127;51.488;5.462;2023-03-16T13:05:34;100933.19;;;16.50
75431;BMP280;64127;51.488;5.462;2023-03-16T13:08:13;100958.16;;;16.64
75431;BMP280;64127;51.488;5.462;2023-03-16T13:11:19;100935.84;;;16.50
75431;BMP280;64127;51.488;5.462;2023-03-16T13:14:06;100956.31;;;16.57
75431;BMP280;64127;51.488;5.462;2023-03-16T13:16:43;100942.22;;;16.61
75431;BMP280;64127;51.488;5.462;2023-03-16T13:19:25;100931.69;;;16.64
75431;BMP280;64127;51.488;5.462;2023-03-16T13:22:26;100937.97;;;16.69
75431;BMP280;64127;51.488;5.462;2023-03-16T13:25:40;100929.34;;;16.80
75431;BMP280;64127;51.488;5.462;2023-03-16T13:28:15;100921.59;;;16.92
75431;BMP280;64127;51.488;5.462;2023-03-16T13:30:48;100928.88;;;17.05
75431;BMP280;64127;51.488;5.462;2023-03-16T13:33:25;100924.44;;;17.04
75431;BMP280;64127;51.488;5.462;2023-03-16T13:35:59;100918.34;;;17.08
75431;BMP280;64127;51.488;5.462;2023-03-16T13:38:31;100906.94;;;17.12
75431;BMP280;64127;51.488;5.462;2023-03-16T13:41:09;100893.56;;;17.06
75431;BMP280;64127;51.488;5.462;2023-03-16T13:43:42;100899.16;;;17.24
75431;BMP280;64127;51.488;5.462;2023-03-16T13:46:18;100899.41;;;17.44
75431;BMP280;64127;51.488;5.462;2023-03-16T13:48:51;100897.75;;;17.50
75431;BMP280;64127;51.488;5.462;2023-03-16T13:51:23;100894.28;;;17.54
75431;BMP280;64127;51.488;5.462;2023-03-16T13:53:55;100881.84;;;17.49
75431;BMP280;64127;51.488;5.462;2023-03-16T13:56:27;100872.91;;;17.42
75431;BMP280;64127;51.488;5.462;2023-03-16T13:59:00;100874.66;;;17.42
75431;BMP280;64127;51.488;5.462;2023-03-16T14:01:32;100866.69;;;17.39
75431;BMP280;64127;51.488;5.462;2023-03-16T14:04:11;100865.94;;;17.49
75431;BMP280;64127;51.488;5.462;2023-03-16T14:06:59;100861.56;;;17.54
75431;BMP280;64127;51.488;5.462;2023-03-16T14:09:34;100858.97;;;17.57
75431;BMP280;64127;51.488;5.462;2023-03-16T14:12:13;100859.88;;;17.56
75431;BMP280;64127;51.488;5.462;2023-03-16T14:14:49;100861.84;;;17.72
75431;BMP280;64127;51.488;5.462;2023-03-16T14:17:27;100855.81;;;17.84
75431;BMP280;64127;51.488;5.462;2023-03-16T14:20:00;100845.19;;;17.84
75431;BMP280;64127;51.488;5.462;2023-03-16T14:22:36;100837.28;;;17.87
75431;BMP280;64127;51.488;5.462;2023-03-16T14:25:25;100832.88;;;17.92
75431;BMP280;64127;51.488;5.462;2023-03-16T14:28:05;100849.81;;;18.01
75431;BMP280;64127;51.488;5.462;2023-03-16T14:30:51;100789.34;;;17.71
75431;BMP280;64127;51.488;5.462;2023-03-16T14:33:33;100817.88;;;17.92
75431;BMP280;64127;51.488;5.462;2023-03-16T14:36:17;100818.81;;;17.97
75431;BMP280;64127;51.488;5.462;2023-03-16T14:38:49;100836.53;;;18.00
75431;BMP280;64127;51.488;5.462;2023-03-16T14:41:28;100820.56;;;17.97
75431;BMP280;64127;51.488;5.462;2023-03-16T14:44:01;100796.66;;;17.92
75431;BMP280;64127;51.488;5.462;2023-03-16T14:46:38;100813.63;;;18.08
75431;BMP280;64127;51.488;5.462;2023-03-16T14:49:30;100804.75;;;18.06
75431;BMP280;64127;51.488;5.462;2023-03-16T14:52:28;100803.03;;;18.11
75431;BMP280;64127;51.488;5.462;2023-03-16T14:55:17;100806.56;;;18.10
75431;BMP280;64127;51.488;5.462;2023-03-16T14:57:50;100799.53;;;18.15
75431;BMP280;64127;51.488;5.462;2023-03-16T15:00:22;100796.91;;;18.18
75431;BMP280;64127;51.488;5.462;2023-03-16T15:03:10;100797.88;;;18.29
75431;BMP280;64127;51.488;5.462;2023-03-16T15:05:47;100801.50;;;18.37
75431;BMP280;64127;51.488;5.462;2023-03-16T15:08:27;100781.94;;;18.26
75431;BMP280;64127;51.488;5.462;2023-03-16T15:11:05;100784.56;;;18.23
75431;BMP280;64127;51.488;5.462;2023-03-16T15:13:38;100773.03;;;18.18
75431;BMP280;64127;51.488;5.462;2023-03-16T15:16:13;100794.41;;;18.36
75431;BMP280;64127;51.488;5.462;2023-03-16T15:18:45;100788.28;;;18.43
75431;BMP280;64127;51.488;5.462;2023-03-16T15:21:25;100789.91;;;18.28
75431;BMP280;64127;51.488;5.462;2023-03-16T15:24:00;100783.66;;;18.19
75431;BMP280;64127;51.488;5.462;2023-03-16T15:26:32;100784.44;;;18.09
75431;BMP280;64127;51.488;5.462;2023-03-16T15:29:05;100771.97;;;17.99
75431;BMP280;64127;51.488;5.462;2023-03-16T15:31:37;100751.47;;;17.85
75431;BMP280;64127;51.488;5.462;2023-03-16T15:34:09;100756.75;;;17.82
75431;BMP280;64127;51.488;5.462;2023-03-16T15:36:42;100754.94;;;17.78
75431;BMP280;64127;51.488;5.462;2023-03-16T15:39:24;100761.06;;;17.72
75431;BMP280;64127;51.488;5.462;2023-03-16T15:41:56;100753.94;;;17.68